createdAt,value
2018-04-08T00:01:01.017Z,9.93
2018-04-08T00:03:27.405Z,10.27
2018-04-08T00:05:53.738Z,7.97
2018-04-08T00:08:20.097Z,8.17
2018-04-08T00:10:46.413Z,9.33
2018-04-08T00:13:12.846Z,9.60
2018-04-08T00:15:39.306Z,10.07
2018-04-08T00:18:05.726Z,8.00
2018-04-08T00:20:32.120Z,9.90
2018-04-08T00:22:58.506Z,10.97
2018-04-08T00:25:24.906Z,8.17
2018-04-08T00:27:51.298Z,12.83
2018-04-08T00:30:17.957Z,9.63
2018-04-08T00:32:44.310Z,8.13
2018-04-08T00:35:10.864Z,9.97
2018-04-08T00:37:37.234Z,10.47
2018-04-08T00:40:03.645Z,8.33
2018-04-08T00:42:30.047Z,12.97
2018-04-08T00:44:56.441Z,11.57
2018-04-08T00:47:22.903Z,7.57
2018-04-08T00:49:49.285Z,6.87
2018-04-08T00:52:15.787Z,10.70
2018-04-08T00:54:42.320Z,10.97
2018-04-08T00:57:08.798Z,14.40
2018-04-08T00:59:35.209Z,8.43
2018-04-08T01:02:01.551Z,9.73
2018-04-08T01:04:28.090Z,10.27
2018-04-08T01:06:54.495Z,8.47
2018-04-08T01:09:20.902Z,16.70
2018-04-08T01:11:47.341Z,9.17
2018-04-08T01:14:13.776Z,9.37
2018-04-08T01:16:40.252Z,10.83
2018-04-08T01:19:06.638Z,8.63
2018-04-08T01:21:33.062Z,9.90
2018-04-08T01:23:59.502Z,8.97
2018-04-08T01:26:25.928Z,9.67
2018-04-08T01:28:52.409Z,10.03
2018-04-08T01:31:18.784Z,11.27
2018-04-08T01:33:45.231Z,10.90
2018-04-08T01:36:11.684Z,13.07
2018-04-08T01:38:38.043Z,10.27
2018-04-08T01:41:04.447Z,9.80
2018-04-08T01:43:30.952Z,12.77
2018-04-08T01:45:57.295Z,20.43
2018-04-08T01:48:23.703Z,9.57
2018-04-08T01:50:50.109Z,10.77
2018-04-08T01:53:16.526Z,9.40
2018-04-08T01:55:42.881Z,15.33
2018-04-08T01:58:09.316Z,18.27
2018-04-08T02:00:35.663Z,12.27
2018-04-08T02:03:02.006Z,15.87
2018-04-08T02:05:28.416Z,13.80
2018-04-08T02:07:54.845Z,13.67
2018-04-08T02:10:21.292Z,11.80
2018-04-08T02:12:47.681Z,15.43
2018-04-08T02:15:14.025Z,23.07
2018-04-08T02:17:40.323Z,9.60
2018-04-08T02:20:06.732Z,13.47
2018-04-08T02:22:33.125Z,10.03
2018-04-08T02:24:59.570Z,15.63
2018-04-08T02:27:25.953Z,13.03
2018-04-08T02:29:52.326Z,13.37
2018-04-08T02:32:18.644Z,12.57
2018-04-08T02:34:45.101Z,9.87
2018-04-08T02:37:11.479Z,13.63
2018-04-08T02:39:37.933Z,14.73
2018-04-08T02:42:04.275Z,12.77
2018-04-08T02:44:30.650Z,11.90
2018-04-08T02:46:56.958Z,19.13
2018-04-08T02:49:23.390Z,13.17
2018-04-08T02:51:49.732Z,17.33
2018-04-08T02:54:16.143Z,13.03
2018-04-08T02:56:42.548Z,13.97
2018-04-08T02:59:08.889Z,12.03
2018-04-08T03:01:35.232Z,11.17
2018-04-08T03:04:01.762Z,13.70
2018-04-08T03:06:28.113Z,16.50
2018-04-08T03:08:54.457Z,15.50
2018-04-08T03:11:20.841Z,14.73
2018-04-08T03:13:47.186Z,15.97
2018-04-08T03:16:13.534Z,15.53
2018-04-08T03:18:39.959Z,17.53
2018-04-08T03:21:06.395Z,17.60
2018-04-08T03:23:32.725Z,20.33
2018-04-08T03:25:59.092Z,16.00
2018-04-08T03:28:25.482Z,19.83
2018-04-08T03:30:51.838Z,16.13
2018-04-08T03:33:18.183Z,16.07
2018-04-08T03:35:44.600Z,24.10
2018-04-08T03:38:10.999Z,20.93
2018-04-08T03:40:37.439Z,17.37
2018-04-08T03:43:03.796Z,19.73
2018-04-08T03:45:30.170Z,20.87
2018-04-08T03:47:56.549Z,15.57
2018-04-08T03:50:22.908Z,18.40
2018-04-08T03:52:49.240Z,17.90
2018-04-08T03:55:15.774Z,18.80
2018-04-08T03:57:42.117Z,22.43
2018-04-08T04:00:08.502Z,21.97
2018-04-08T04:02:35.045Z,18.20
2018-04-08T04:05:02.629Z,22.30
2018-04-08T04:07:29.300Z,20.03
2018-04-08T04:09:55.689Z,17.60
2018-04-08T04:12:22.086Z,15.90
2018-04-08T04:14:48.562Z,21.50
2018-04-08T04:17:15.018Z,16.50
2018-04-08T04:19:53.747Z,17.17
2018-04-08T04:22:32.507Z,16.47
2018-04-08T04:25:11.012Z,18.30
2018-04-08T04:27:37.680Z,18.07
2018-04-08T04:30:04.154Z,18.07
2018-04-08T04:32:30.547Z,23.03
2018-04-08T04:34:57.012Z,16.27
2018-04-08T04:37:23.430Z,18.00
2018-04-08T04:39:49.776Z,19.97
2018-04-08T04:42:16.231Z,13.30
2018-04-08T04:44:42.874Z,16.43
2018-04-08T04:47:09.259Z,12.53
2018-04-08T04:49:35.610Z,16.27
2018-04-08T04:52:01.996Z,10.40
2018-04-08T04:54:28.687Z,13.20
2018-04-08T04:56:55.387Z,15.73
2018-04-08T04:59:21.807Z,13.23
2018-04-08T05:01:48.303Z,15.17
2018-04-08T05:04:14.828Z,12.17
2018-04-08T05:06:41.238Z,12.83
2018-04-08T05:09:07.594Z,13.30
2018-04-08T05:11:33.987Z,21.17
2018-04-08T05:14:00.531Z,17.60
2018-04-08T05:16:26.963Z,16.97
2018-04-08T05:18:53.357Z,15.27
2018-04-08T05:21:19.818Z,12.53
2018-04-08T05:23:46.265Z,19.77
2018-04-08T05:26:12.751Z,17.40
2018-04-08T05:28:39.182Z,25.00
2018-04-08T05:31:05.595Z,14.53
2018-04-08T05:33:31.932Z,15.23
2018-04-08T05:36:00.237Z,17.60
2018-04-08T05:38:27.739Z,19.10
2018-04-08T05:40:54.948Z,12.57
2018-04-08T05:43:21.418Z,16.07
2018-04-08T05:45:47.790Z,15.93
2018-04-08T05:48:14.372Z,15.87
2018-04-08T05:50:40.915Z,14.17
2018-04-08T05:53:07.320Z,13.50
2018-04-08T05:55:33.751Z,12.20
2018-04-08T05:58:00.508Z,15.73
2018-04-08T06:00:26.987Z,15.13
2018-04-08T06:02:53.565Z,19.33
2018-04-08T06:05:20.374Z,15.97
2018-04-08T06:07:47.160Z,13.93
2018-04-08T06:10:13.693Z,17.87
2018-04-08T06:12:40.265Z,13.57
2018-04-08T06:15:07.009Z,20.07
2018-04-08T06:17:35.539Z,16.43
2018-04-08T06:20:02.345Z,13.50
2018-04-08T06:22:29.220Z,14.10
2018-04-08T06:24:55.986Z,13.77
2018-04-08T06:27:22.786Z,16.00
2018-04-08T06:29:49.333Z,13.23
2018-04-08T06:32:17.204Z,18.33
2018-04-08T06:34:44.251Z,12.53
2018-04-08T06:37:10.791Z,16.90
2018-04-08T06:39:37.311Z,21.73
2018-04-08T06:42:03.821Z,19.07
2018-04-08T06:44:30.324Z,16.87
2018-04-08T06:46:56.825Z,14.33
2018-04-08T06:49:23.664Z,13.40
2018-04-08T06:51:50.275Z,14.23
2018-04-08T06:54:16.748Z,14.13
2018-04-08T06:56:43.267Z,12.63
2018-04-08T06:59:09.669Z,13.20
2018-04-08T07:01:36.156Z,16.40
2018-04-08T07:04:02.935Z,15.03
2018-04-08T07:06:29.391Z,12.90
2018-04-08T07:08:55.882Z,14.33
2018-04-08T07:11:22.463Z,16.20
2018-04-08T07:13:49.611Z,13.47
2018-04-08T07:16:16.426Z,13.83
2018-04-08T07:18:42.977Z,13.93
2018-04-08T07:21:10.103Z,15.40
2018-04-08T07:23:36.842Z,13.17
2018-04-08T07:26:04.179Z,16.33
2018-04-08T07:28:30.664Z,12.00
2018-04-08T07:30:57.149Z,14.33
2018-04-08T07:33:23.736Z,16.87
2018-04-08T07:35:50.198Z,11.87
2018-04-08T07:38:16.704Z,11.73
2018-04-08T07:40:43.192Z,15.00
2018-04-08T07:43:09.835Z,13.80
2018-04-08T07:45:36.687Z,11.73
2018-04-08T07:48:03.244Z,16.07
2018-04-08T07:50:29.821Z,9.87
2018-04-08T07:52:56.422Z,12.30
2018-04-08T07:55:25.303Z,9.00
2018-04-08T07:57:52.219Z,10.27
2018-04-08T08:00:18.953Z,11.67
2018-04-08T08:02:45.495Z,11.07
2018-04-08T08:05:12.338Z,8.67
2018-04-08T08:07:39.033Z,12.67
2018-04-08T08:10:05.791Z,8.20
2018-04-08T08:12:32.866Z,10.83
2018-04-08T08:14:59.572Z,10.03
2018-04-08T08:17:26.175Z,8.37
2018-04-08T08:19:53.012Z,8.60
2018-04-08T08:22:20.325Z,10.43
2018-04-08T08:24:46.933Z,9.50
2018-04-08T08:27:13.419Z,8.97
2018-04-08T08:29:41.923Z,9.50
2018-04-08T08:32:08.598Z,6.93
2018-04-08T08:34:35.173Z,10.27
2018-04-08T08:37:02.350Z,7.10
2018-04-08T08:39:29.346Z,8.60
2018-04-08T08:41:55.884Z,7.40
2018-04-08T08:44:22.492Z,13.67
2018-04-08T08:46:50.091Z,6.30
2018-04-08T08:49:16.625Z,7.53
2018-04-08T08:51:43.110Z,7.90
2018-04-08T08:54:09.555Z,5.63
2018-04-08T08:56:36.245Z,5.30
2018-04-08T08:59:03.042Z,8.77
2018-04-08T09:01:29.638Z,6.73
2018-04-08T09:03:56.454Z,8.43
2018-04-08T09:06:22.910Z,7.10
2018-04-08T09:08:49.471Z,7.17
2018-04-08T09:11:15.893Z,9.10
2018-04-08T09:13:42.408Z,12.27
2018-04-08T09:16:09.219Z,7.93
2018-04-08T09:18:35.744Z,7.77
2018-04-08T09:24:13.595Z,6.40
2018-04-08T09:26:40.344Z,8.13
2018-04-08T09:29:06.842Z,6.67
2018-04-08T09:31:33.537Z,5.30
2018-04-08T09:34:00.418Z,9.03
2018-04-08T09:36:27.122Z,6.33
2018-04-08T09:38:53.493Z,8.60
2018-04-08T09:41:20.495Z,8.03
2018-04-08T09:43:46.986Z,5.97
2018-04-08T09:46:13.375Z,5.53
2018-04-08T09:48:39.873Z,4.93
2018-04-08T09:51:06.663Z,5.90
2018-04-08T09:53:33.982Z,5.20
2018-04-08T09:56:00.621Z,5.00
2018-04-08T09:58:27.805Z,4.63
2018-04-08T10:01:14.058Z,7.77
2018-04-08T10:03:49.008Z,6.33
2018-04-08T10:06:15.611Z,4.80
2018-04-08T10:08:42.524Z,6.87
2018-04-08T10:11:09.120Z,6.67
2018-04-08T10:13:35.649Z,7.37
2018-04-08T10:16:02.459Z,7.47
2018-04-08T10:18:28.961Z,4.57
2018-04-08T10:20:55.522Z,11.53
2018-04-08T10:23:22.143Z,9.70
2018-04-08T10:25:48.674Z,6.67
2018-04-08T10:28:15.328Z,9.50
2018-04-08T10:30:42.012Z,6.47
2018-04-08T10:33:08.381Z,6.43
2018-04-08T10:35:34.902Z,6.10
2018-04-08T10:38:01.406Z,12.87
2018-04-08T10:40:28.121Z,9.40
2018-04-08T10:42:54.562Z,9.90
2018-04-08T10:45:21.003Z,2.83
2018-04-08T10:47:47.596Z,6.90
2018-04-08T10:50:14.219Z,8.50
2018-04-08T10:52:41.351Z,9.67
2018-04-08T10:55:08.919Z,8.63
2018-04-08T10:57:35.961Z,11.50
2018-04-08T11:00:02.776Z,8.93
2018-04-08T11:02:30.103Z,7.57
2018-04-08T11:04:56.653Z,7.83
2018-04-08T11:07:24.092Z,5.57
2018-04-08T11:09:50.698Z,6.40
2018-04-08T11:12:17.806Z,8.27
2018-04-08T11:14:44.425Z,9.33
2018-04-08T11:17:10.884Z,5.27
2018-04-08T11:19:37.465Z,4.83
2018-04-08T11:22:04.249Z,6.03
2018-04-08T11:24:30.818Z,6.17
2018-04-08T11:26:57.449Z,4.20
2018-04-08T11:29:23.926Z,6.03
2018-04-08T11:31:50.291Z,4.63
2018-04-08T11:34:16.838Z,9.13
2018-04-08T11:36:44.944Z,5.90
2018-04-08T11:39:11.383Z,9.20
2018-04-08T11:41:37.855Z,9.13
2018-04-08T11:44:04.759Z,4.23
2018-04-08T11:46:31.263Z,6.43
2018-04-08T11:48:57.684Z,6.47
2018-04-08T11:51:24.535Z,8.80
2018-04-08T11:53:51.200Z,7.47
2018-04-08T11:56:17.662Z,5.27
2018-04-08T11:58:44.200Z,6.90
2018-04-08T12:01:10.792Z,4.40
2018-04-08T12:03:37.486Z,7.57
2018-04-08T12:06:04.140Z,6.90
2018-04-08T12:08:30.729Z,6.93
2018-04-08T12:10:57.562Z,3.57
2018-04-08T12:13:24.212Z,4.03
2018-04-08T12:15:50.801Z,6.90
2018-04-08T12:18:17.297Z,8.73
2018-04-08T12:20:43.741Z,4.17
2018-04-08T12:23:10.591Z,4.77
2018-04-08T12:25:37.135Z,3.40
2018-04-08T12:28:04.489Z,5.80
2018-04-08T12:30:31.198Z,4.87
2018-04-08T12:32:57.702Z,10.20
2018-04-08T12:35:24.087Z,8.23
2018-04-08T12:37:50.584Z,5.43
2018-04-08T12:40:17.113Z,7.13
2018-04-08T12:42:43.698Z,5.60
2018-04-08T12:45:10.912Z,6.77
2018-04-08T12:47:37.498Z,6.83
2018-04-08T12:50:04.154Z,5.33
2018-04-08T12:52:30.906Z,5.83
2018-04-08T12:54:58.137Z,6.90
2018-04-08T12:57:24.688Z,6.03
2018-04-08T12:59:51.157Z,6.00
2018-04-08T13:02:17.839Z,4.10
2018-04-08T13:04:44.729Z,4.83
2018-04-08T13:07:11.288Z,7.33
2018-04-08T13:09:38.952Z,7.27
2018-04-08T13:12:05.487Z,8.20
2018-04-08T13:14:32.645Z,6.23
2018-04-08T13:16:59.327Z,7.53
2018-04-08T13:19:26.120Z,5.57
2018-04-08T13:21:52.983Z,10.37
2018-04-08T13:24:19.473Z,6.10
2018-04-08T13:26:46.147Z,6.00
2018-04-08T13:29:12.770Z,6.10
2018-04-08T13:31:39.221Z,6.97
2018-04-08T13:34:05.646Z,12.27
2018-04-08T13:36:32.223Z,3.43
2018-04-08T13:38:58.864Z,6.07
2018-04-08T13:41:25.353Z,10.73
2018-04-08T13:43:51.843Z,3.70
2018-04-08T13:46:18.312Z,7.60
2018-04-08T13:48:44.676Z,4.77
2018-04-08T13:51:11.192Z,5.40
2018-04-08T13:53:37.992Z,8.50
2018-04-08T13:56:04.512Z,6.73
2018-04-08T13:58:31.058Z,7.97
2018-04-08T14:00:57.860Z,6.73
2018-04-08T14:03:24.539Z,6.20
2018-04-08T14:05:51.081Z,7.87
2018-04-08T14:08:17.600Z,11.13
2018-04-08T14:10:44.067Z,4.00
2018-04-08T14:13:10.689Z,8.00
2018-04-08T14:15:37.225Z,7.20
2018-04-08T14:18:03.910Z,9.60
2018-04-08T14:20:30.424Z,5.33
2018-04-08T14:22:57.019Z,8.80
2018-04-08T14:25:23.639Z,7.07
2018-04-08T14:27:50.164Z,3.90
2018-04-08T14:30:16.697Z,10.53
2018-04-08T14:32:43.104Z,4.80
2018-04-08T14:35:09.940Z,4.23
2018-04-08T14:37:36.491Z,10.40
2018-04-08T14:40:04.086Z,4.30
2018-04-08T14:42:31.257Z,8.43
2018-04-08T14:44:58.443Z,5.20
2018-04-08T14:47:25.230Z,8.27
2018-04-08T14:49:53.963Z,6.90
2018-04-08T14:52:21.021Z,5.73
2018-04-08T14:54:47.713Z,6.13
2018-04-08T14:57:14.292Z,4.97
2018-04-08T14:59:40.807Z,4.53
2018-04-08T15:02:07.980Z,6.70
2018-04-08T15:04:34.833Z,6.37
2018-04-08T15:07:01.314Z,7.13
2018-04-08T15:09:28.221Z,9.20
2018-04-08T15:11:55.090Z,6.90
2018-04-08T15:14:21.701Z,51.03
2018-04-08T15:16:48.302Z,14.60
2018-04-08T15:19:14.920Z,12.40
2018-04-08T15:21:41.457Z,8.67
2018-04-08T15:24:08.213Z,9.53
2018-04-08T15:26:34.745Z,10.47
2018-04-08T15:29:01.497Z,10.33
2018-04-08T15:31:27.917Z,5.43
2018-04-08T15:33:54.554Z,34.67
2018-04-08T15:36:21.280Z,16.27
2018-04-08T15:38:47.867Z,9.57
2018-04-08T15:41:14.710Z,3.87
2018-04-08T15:43:41.296Z,3.07
2018-04-08T15:46:07.822Z,5.77
2018-04-08T15:48:34.515Z,11.70
2018-04-08T15:51:01.063Z,6.73
2018-04-08T15:53:27.507Z,5.67
2018-04-08T15:55:54.266Z,4.60
2018-04-08T15:58:21.115Z,2.67
2018-04-08T16:00:48.589Z,7.33
2018-04-08T16:03:16.834Z,4.27
2018-04-08T16:05:43.662Z,3.77
2018-04-08T16:08:10.074Z,3.90
2018-04-08T16:10:36.708Z,3.10
2018-04-08T16:13:03.346Z,7.13
2018-04-08T16:15:29.812Z,4.40
2018-04-08T16:17:56.477Z,3.23
2018-04-08T16:20:23.870Z,2.77
2018-04-08T16:22:50.962Z,2.23
2018-04-08T16:25:17.411Z,3.27
2018-04-08T16:27:43.970Z,4.27
2018-04-08T16:30:10.651Z,3.37
2018-04-08T16:32:37.326Z,3.47
2018-04-08T16:35:03.970Z,5.30
2018-04-08T16:37:31.048Z,4.30
2018-04-08T16:39:57.644Z,3.23
2018-04-08T16:42:24.351Z,3.27
2018-04-08T16:44:50.704Z,3.47
2018-04-08T16:47:17.309Z,4.47
2018-04-08T16:49:43.750Z,2.97
2018-04-08T16:52:10.109Z,8.83
2018-04-08T16:54:36.637Z,4.87
2018-04-08T16:57:03.321Z,25.30
2018-04-08T16:59:29.837Z,6.07
2018-04-08T17:01:56.836Z,7.53
2018-04-08T17:04:23.376Z,8.03
2018-04-08T17:06:49.923Z,13.97
2018-04-08T17:09:16.422Z,8.60
2018-04-08T17:11:43.077Z,4.53
2018-04-08T17:14:09.851Z,3.90
2018-04-08T17:16:36.392Z,2.43
2018-04-08T17:19:03.777Z,8.23
2018-04-08T17:21:30.401Z,6.10
2018-04-08T17:23:56.863Z,3.33
2018-04-08T17:26:23.546Z,4.57
2018-04-08T17:28:51.467Z,4.63
2018-04-08T17:31:18.343Z,5.67
2018-04-08T17:33:45.472Z,5.13
2018-04-08T17:36:12.211Z,3.20
2018-04-08T17:38:39.700Z,4.10
2018-04-08T17:41:06.405Z,7.07
2018-04-08T17:43:34.312Z,3.80
2018-04-08T17:46:00.939Z,6.57
2018-04-08T17:48:27.433Z,5.03
2018-04-08T17:50:53.813Z,3.80
2018-04-08T17:53:20.543Z,3.40
2018-04-08T17:55:47.224Z,4.47
2018-04-08T17:58:13.717Z,4.30
2018-04-08T18:00:40.677Z,5.83
2018-04-08T18:03:07.503Z,4.53
2018-04-08T18:05:34.025Z,2.80
2018-04-08T18:08:00.553Z,5.87
2018-04-08T18:10:27.059Z,4.90
2018-04-08T18:13:00.421Z,10.37
2018-04-08T18:15:29.083Z,5.47
2018-04-08T18:17:55.534Z,5.60
2018-04-08T18:20:24.186Z,5.37
2018-04-08T18:22:51.388Z,2.97
2018-04-08T18:25:18.348Z,4.23
2018-04-08T18:27:44.913Z,5.90
2018-04-08T18:30:11.523Z,6.47
2018-04-08T18:32:38.066Z,4.00
2018-04-08T18:35:04.521Z,4.07
2018-04-08T18:37:31.420Z,5.80
2018-04-08T18:40:02.521Z,6.00
2018-04-08T18:42:30.529Z,6.60
2018-04-08T18:44:56.975Z,5.03
2018-04-08T18:47:23.444Z,7.50
2018-04-08T18:49:50.012Z,4.67
2018-04-08T18:52:16.427Z,5.00
2018-04-08T18:54:42.907Z,3.47
2018-04-08T18:57:09.506Z,5.37
2018-04-08T18:59:36.328Z,5.20
2018-04-08T19:02:03.043Z,5.37
2018-04-08T19:04:30.307Z,6.33
2018-04-08T19:06:57.184Z,7.77
2018-04-08T19:09:23.916Z,5.70
2018-04-08T19:11:50.731Z,7.27
2018-04-08T19:14:19.300Z,7.63
2018-04-08T19:16:51.007Z,4.20
2018-04-08T19:19:22.008Z,6.90
2018-04-08T19:21:48.989Z,7.20
2018-04-08T19:24:19.534Z,5.13
2018-04-08T19:26:47.277Z,8.23
2018-04-08T19:29:13.951Z,9.80
2018-04-08T19:31:40.464Z,5.83
2018-04-08T19:34:07.127Z,9.43
2018-04-08T19:36:33.847Z,9.13
2018-04-08T19:39:00.335Z,4.93
2018-04-08T19:41:26.829Z,7.30
2018-04-08T19:43:53.559Z,6.80
2018-04-08T19:46:20.174Z,13.77
2018-04-08T19:48:46.925Z,7.20
2018-04-08T19:51:13.555Z,6.17
2018-04-08T19:53:40.170Z,6.20
2018-04-08T19:56:06.910Z,6.27
2018-04-08T19:58:33.490Z,5.57
2018-04-08T20:00:59.993Z,8.57
2018-04-08T20:03:26.578Z,6.03
2018-04-08T20:05:53.065Z,8.53
2018-04-08T20:08:19.845Z,8.60
2018-04-08T20:10:46.843Z,6.67
2018-04-08T20:13:13.413Z,6.27
2018-04-08T20:15:40.382Z,6.70
2018-04-08T20:18:08.292Z,8.93
2018-04-08T20:20:36.452Z,7.30
2018-04-08T20:23:04.055Z,8.30
2018-04-08T20:25:31.858Z,10.87
2018-04-08T20:27:58.514Z,7.13
2018-04-08T20:30:25.008Z,8.67
2018-04-08T20:32:51.579Z,5.97
2018-04-08T20:35:18.171Z,8.47
2018-04-08T20:37:44.925Z,6.57
2018-04-08T20:40:11.420Z,8.10
2018-04-08T20:42:37.925Z,7.07
2018-04-08T20:45:04.328Z,5.93
2018-04-08T20:47:30.977Z,12.43
2018-04-08T20:49:57.411Z,6.90
2018-04-08T20:52:23.839Z,6.57
2018-04-08T20:54:50.287Z,7.03
2018-04-08T20:57:18.349Z,4.97
2018-04-08T20:59:45.505Z,5.67
2018-04-08T21:02:12.085Z,7.03
2018-04-08T21:04:38.693Z,4.50
2018-04-08T21:07:05.275Z,6.43
2018-04-08T21:09:31.753Z,5.23
2018-04-08T21:11:58.236Z,5.00
2018-04-08T21:14:24.591Z,6.37
2018-04-08T21:16:51.049Z,6.67
2018-04-08T21:19:17.657Z,5.03
2018-04-08T21:21:44.214Z,6.33
2018-04-08T21:24:10.915Z,6.07
2018-04-08T21:26:37.371Z,6.93
2018-04-08T21:29:03.865Z,5.23
2018-04-08T21:31:30.278Z,7.33
2018-04-08T21:33:56.706Z,7.03
2018-04-08T21:36:23.248Z,7.53
2018-04-08T21:38:49.706Z,6.13
2018-04-08T21:41:16.242Z,8.73
2018-04-08T21:43:42.965Z,5.63
2018-04-08T21:46:09.854Z,6.93
2018-04-08T21:48:37.162Z,5.03
2018-04-08T21:51:03.766Z,6.43
2018-04-08T21:53:30.343Z,4.90
2018-04-08T21:55:57.070Z,5.53
2018-04-08T21:58:23.667Z,8.03
2018-04-08T22:00:50.798Z,7.63
2018-04-08T22:03:17.687Z,5.93
2018-04-08T22:05:44.965Z,7.10
2018-04-08T22:08:11.827Z,7.93
2018-04-08T22:10:39.176Z,6.77
2018-04-08T22:13:06.128Z,7.20
2018-04-08T22:15:32.573Z,7.77
2018-04-08T22:17:59.146Z,7.20
2018-04-08T22:20:25.752Z,7.60
2018-04-08T22:22:52.220Z,6.90
2018-04-08T22:25:18.684Z,9.57
2018-04-08T22:27:45.319Z,6.27
2018-04-08T22:30:11.831Z,8.30
2018-04-08T22:32:38.329Z,6.87
2018-04-08T22:35:04.870Z,5.97
2018-04-08T22:37:31.329Z,14.03
2018-04-08T22:39:57.737Z,8.47
2018-04-08T22:42:24.236Z,6.87
2018-04-08T22:44:50.591Z,11.50
2018-04-08T22:47:17.482Z,7.37
2018-04-08T22:49:44.520Z,8.07
2018-04-08T22:52:11.436Z,6.00
2018-04-08T22:54:39.308Z,7.87
2018-04-08T22:57:06.578Z,6.83
2018-04-08T22:59:33.972Z,6.37
2018-04-08T23:02:01.526Z,12.97
2018-04-08T23:04:28.084Z,5.70
2018-04-08T23:06:55.660Z,8.27
2018-04-08T23:09:22.154Z,8.47
2018-04-08T23:11:48.607Z,7.20
2018-04-08T23:14:14.994Z,6.60
2018-04-08T23:16:41.589Z,7.67
2018-04-08T23:19:07.931Z,6.40
2018-04-08T23:21:34.354Z,8.27
2018-04-08T23:24:00.862Z,7.30
2018-04-08T23:26:27.435Z,7.20
2018-04-08T23:28:53.838Z,5.70
2018-04-08T23:31:20.211Z,7.03
2018-04-08T23:33:46.594Z,9.50
2018-04-08T23:36:13.034Z,6.93
2018-04-08T23:38:39.418Z,6.63
2018-04-08T23:41:05.746Z,10.67
2018-04-08T23:43:32.408Z,8.57
2018-04-08T23:45:58.953Z,8.50
2018-04-08T23:48:25.363Z,6.47
2018-04-08T23:50:51.872Z,6.03
2018-04-08T23:53:18.434Z,8.30
2018-04-08T23:55:44.932Z,8.37
2018-04-08T23:58:11.524Z,9.47
